createdAt,value
2019-02-21T00:00:50.013Z,4.82
2019-02-21T00:05:50.017Z,4.90
2019-02-21T00:10:51.047Z,5.03
2019-02-21T00:15:51.025Z,5.09
2019-02-21T00:20:52.007Z,5.08
2019-02-21T00:25:55.676Z,5.12
2019-02-21T00:30:53.044Z,5.16
2019-02-21T00:35:53.059Z,5.14
2019-02-21T00:40:54.030Z,5.13
2019-02-21T00:45:54.036Z,5.08
2019-02-21T00:50:54.094Z,5.02
2019-02-21T00:55:54.015Z,4.98
2019-02-21T01:00:53.135Z,4.98
2019-02-21T01:05:53.067Z,4.95
2019-02-21T01:10:53.033Z,4.83
2019-02-21T01:15:53.057Z,4.70
2019-02-21T01:20:52.295Z,4.55
2019-02-21T01:25:52.106Z,4.45
2019-02-21T01:30:56.966Z,4.41
2019-02-21T01:35:51.247Z,4.28
2019-02-21T01:40:51.024Z,4.17
2019-02-21T01:45:51.073Z,4.18
2019-02-21T01:50:51.087Z,4.17
2019-02-21T01:55:51.059Z,4.29
2019-02-21T02:00:50.243Z,4.19
2019-02-21T02:05:51.052Z,4.09
2019-02-21T02:10:50.303Z,3.99
2019-02-21T02:15:50.078Z,3.90
2019-02-21T02:20:50.327Z,3.73
2019-02-21T02:25:50.081Z,3.66
2019-02-21T02:30:49.250Z,3.57
2019-02-21T02:35:48.731Z,3.46
2019-02-21T02:40:48.288Z,3.44
2019-02-21T02:45:48.113Z,3.38
2019-02-21T02:50:47.066Z,3.34
2019-02-21T02:55:47.096Z,3.34
2019-02-21T03:00:47.296Z,3.34
2019-02-21T03:05:47.086Z,3.34
2019-02-21T03:10:47.130Z,3.38
2019-02-21T03:15:47.100Z,3.42
2019-02-21T03:20:46.511Z,3.50
2019-02-21T03:25:46.085Z,3.54
2019-02-21T03:30:45.178Z,3.59
2019-02-21T03:35:46.149Z,3.67
2019-02-21T03:40:45.076Z,3.70
2019-02-21T03:45:45.348Z,3.74
2019-02-21T03:50:45.547Z,3.75
2019-02-21T03:55:44.094Z,3.75
2019-02-21T04:00:45.542Z,3.72
2019-02-21T04:05:44.367Z,3.73
2019-02-21T04:10:43.308Z,3.73
2019-02-21T04:15:43.328Z,3.73
2019-02-21T04:20:43.111Z,3.74
2019-02-21T04:25:43.363Z,3.76
2019-02-21T04:30:42.149Z,3.83
2019-02-21T04:35:41.400Z,3.97
2019-02-21T04:40:41.187Z,4.09
2019-02-21T04:45:41.399Z,4.12
2019-02-21T04:50:41.210Z,4.15
2019-02-21T04:55:40.742Z,4.13
2019-02-21T05:00:40.130Z,4.13
2019-02-21T05:05:39.169Z,4.13
2019-02-21T05:10:39.601Z,4.11
2019-02-21T05:15:38.151Z,4.07
2019-02-21T05:20:37.324Z,3.99
2019-02-21T05:25:37.167Z,3.90
2019-02-21T05:30:36.541Z,3.84
2019-02-21T05:35:36.340Z,3.83
2019-02-21T05:40:35.206Z,3.97
2019-02-21T05:45:36.180Z,4.15
2019-02-21T05:50:35.146Z,4.17
2019-02-21T05:55:36.243Z,4.11
2019-02-21T06:00:37.034Z,4.04
2019-02-21T06:05:36.436Z,3.97
2019-02-21T06:10:36.554Z,3.94
2019-02-21T06:15:36.217Z,3.94
2019-02-21T06:20:36.214Z,3.92
2019-02-21T06:25:36.237Z,3.91
2019-02-21T06:30:35.576Z,3.88
2019-02-21T06:35:36.209Z,3.95
2019-02-21T06:40:36.531Z,3.88
2019-02-21T06:45:35.185Z,3.84
2019-02-21T06:50:35.202Z,3.86
2019-02-21T06:55:34.209Z,3.88
2019-02-21T07:00:35.248Z,3.89
2019-02-21T07:05:37.011Z,3.88
2019-02-21T07:10:35.226Z,3.86
2019-02-21T07:15:36.233Z,3.83
2019-02-21T07:20:35.308Z,3.87
2019-02-21T07:25:35.410Z,4.05
2019-02-21T07:30:34.360Z,4.19
2019-02-21T07:35:34.230Z,4.39
2019-02-21T07:40:34.318Z,4.64
2019-02-21T07:45:35.944Z,4.86
2019-02-21T07:50:32.403Z,4.97
2019-02-21T07:55:31.533Z,5.12
2019-02-21T08:00:31.772Z,5.29
2019-02-21T08:05:30.432Z,5.47
2019-02-21T08:10:33.260Z,5.77
2019-02-21T08:15:30.444Z,6.03
2019-02-21T08:20:34.043Z,6.43
2019-02-21T08:25:30.462Z,6.61
2019-02-21T08:30:29.711Z,6.75
2019-02-21T08:35:28.307Z,6.94
2019-02-21T08:40:28.550Z,7.08
2019-02-21T08:45:28.504Z,7.29
2019-02-21T08:50:28.246Z,7.52
2019-02-21T08:55:27.287Z,7.85
2019-02-21T09:00:27.570Z,7.87
2019-02-21T09:05:27.249Z,7.91
2019-02-21T09:10:27.681Z,7.91
2019-02-21T09:15:26.238Z,8.02
2019-02-21T09:20:26.297Z,8.12
2019-02-21T09:25:26.277Z,8.26
2019-02-21T09:30:25.302Z,8.31
2019-02-21T09:35:25.260Z,8.49
2019-02-21T09:40:25.447Z,8.53
2019-02-21T09:45:25.275Z,8.59
2019-02-21T09:50:25.311Z,8.77
2019-02-21T09:55:25.539Z,9.14
2019-02-21T10:00:25.278Z,9.46
2019-02-21T10:05:25.301Z,9.55
2019-02-21T10:10:25.288Z,9.67
2019-02-21T10:15:25.298Z,9.78
2019-02-21T10:20:25.345Z,9.72
2019-02-21T10:25:25.323Z,9.63
2019-02-21T10:30:24.639Z,9.55
2019-02-21T10:35:25.276Z,9.49
2019-02-21T10:40:25.261Z,9.79
2019-02-21T10:45:25.272Z,9.93
2019-02-21T10:50:24.279Z,9.94
2019-02-21T10:55:24.284Z,9.90
2019-02-21T11:00:24.321Z,10.06
2019-02-21T11:05:24.345Z,10.44
2019-02-21T11:10:23.458Z,10.67
2019-02-21T11:15:23.322Z,10.76
2019-02-21T11:20:24.308Z,11.02
2019-02-21T11:25:23.307Z,11.19
2019-02-21T11:30:22.564Z,11.26
2019-02-21T11:35:23.330Z,11.27
2019-02-21T11:40:22.609Z,11.20
2019-02-21T11:45:23.291Z,11.19
2019-02-21T11:50:23.273Z,11.33
2019-02-21T11:55:24.303Z,11.33
2019-02-21T12:00:24.450Z,11.35
2019-02-21T12:05:30.650Z,11.47
2019-02-21T12:10:24.291Z,11.50
2019-02-21T12:15:24.277Z,11.51
2019-02-21T12:20:24.252Z,11.51
2019-02-21T12:25:25.309Z,11.50
2019-02-21T12:30:26.353Z,11.60
2019-02-21T12:35:29.541Z,11.57
2019-02-21T12:40:25.264Z,11.56
2019-02-21T12:45:25.500Z,11.60
2019-02-21T12:50:25.367Z,11.60
2019-02-21T12:55:28.137Z,11.65
2019-02-21T13:00:27.271Z,11.73
2019-02-21T13:05:27.394Z,11.81
2019-02-21T13:10:26.256Z,11.83
2019-02-21T13:15:26.314Z,11.99
2019-02-21T13:20:25.270Z,12.17
2019-02-21T13:25:25.333Z,12.08
2019-02-21T13:30:24.585Z,12.16
2019-02-21T13:35:24.234Z,12.12
2019-02-21T13:40:24.554Z,12.10
2019-02-21T13:45:24.467Z,12.11
2019-02-21T13:50:24.559Z,12.09
2019-02-21T13:55:24.356Z,12.12
2019-02-21T14:00:25.346Z,12.23
2019-02-21T14:05:25.371Z,12.42
2019-02-21T14:10:25.515Z,12.32
2019-02-21T14:15:24.277Z,12.26
2019-02-21T14:20:24.534Z,12.29
2019-02-21T14:25:23.272Z,12.28
2019-02-21T14:30:23.293Z,12.23
2019-02-21T14:35:22.289Z,12.11
2019-02-21T14:40:22.301Z,11.94
2019-02-21T14:45:22.283Z,11.81
2019-02-21T14:50:21.647Z,11.70
2019-02-21T14:55:22.313Z,11.73
2019-02-21T15:00:21.272Z,11.77
2019-02-21T15:05:22.356Z,11.72
2019-02-21T15:10:21.515Z,11.65
2019-02-21T15:15:22.381Z,11.57
2019-02-21T15:20:21.342Z,11.58
2019-02-21T15:25:21.277Z,11.55
2019-02-21T15:30:21.330Z,11.54
2019-02-21T15:35:21.410Z,11.60
2019-02-21T15:40:21.417Z,11.60
2019-02-21T15:45:23.462Z,11.48
2019-02-21T15:50:21.296Z,11.41
2019-02-21T15:55:22.275Z,11.32
2019-02-21T16:00:22.303Z,11.21
2019-02-21T16:05:22.263Z,11.20
2019-02-21T16:10:22.415Z,11.12
2019-02-21T16:15:23.376Z,11.06
2019-02-21T16:20:23.286Z,11.00
2019-02-21T16:25:22.304Z,10.96
2019-02-21T16:30:22.135Z,10.93
2019-02-21T16:35:22.303Z,10.88
2019-02-21T16:40:21.303Z,10.84
2019-02-21T16:45:22.337Z,10.79
2019-02-21T16:50:29.202Z,10.76
2019-02-21T16:55:21.315Z,10.73
2019-02-21T17:00:21.343Z,10.70
2019-02-21T17:05:20.573Z,10.66
2019-02-21T17:10:20.283Z,10.62
2019-02-21T17:15:20.256Z,10.60
2019-02-21T17:20:19.286Z,10.60
2019-02-21T17:25:20.277Z,10.63
2019-02-21T17:30:20.331Z,10.64
2019-02-21T17:35:21.258Z,10.67
2019-02-21T17:40:22.302Z,10.63
2019-02-21T17:45:22.297Z,10.58
2019-02-21T17:50:22.263Z,10.54
2019-02-21T17:55:21.633Z,10.53
2019-02-21T18:00:21.450Z,10.51
2019-02-21T18:05:21.476Z,10.51
2019-02-21T18:10:20.620Z,10.49
2019-02-21T18:15:21.419Z,10.47
2019-02-21T18:20:20.371Z,10.44
2019-02-21T18:25:19.412Z,10.41
2019-02-21T18:30:19.461Z,10.38
2019-02-21T18:35:18.510Z,10.36
2019-02-21T18:40:20.622Z,10.35
2019-02-21T18:45:18.275Z,10.33
2019-02-21T18:50:18.245Z,10.34
2019-02-21T18:55:17.321Z,10.35
2019-02-21T19:00:17.337Z,10.35
2019-02-21T19:05:16.362Z,10.35
2019-02-21T19:10:15.309Z,10.33
2019-02-21T19:15:14.310Z,10.24
2019-02-21T19:20:14.364Z,10.15
2019-02-21T19:25:13.297Z,10.07
2019-02-21T19:30:12.480Z,9.98
2019-02-21T19:35:12.265Z,9.92
2019-02-21T19:40:11.652Z,9.88
2019-02-21T19:45:10.548Z,9.89
2019-02-21T19:50:10.515Z,9.87
2019-02-21T19:55:10.314Z,9.87
2019-02-21T20:00:11.699Z,9.86
2019-02-21T20:05:11.313Z,9.83
2019-02-21T20:10:11.477Z,9.76
2019-02-21T20:15:11.256Z,9.68
2019-02-21T20:20:10.474Z,9.65
2019-02-21T20:25:10.368Z,9.63
2019-02-21T20:30:10.317Z,9.61
2019-02-21T20:35:10.334Z,9.60
2019-02-21T20:40:10.326Z,9.59
2019-02-21T20:45:10.753Z,9.59
2019-02-21T20:50:09.461Z,9.58
2019-02-21T20:55:09.461Z,9.56
2019-02-21T21:00:08.294Z,9.53
2019-02-21T21:05:08.437Z,9.49
2019-02-21T21:10:07.958Z,9.50
2019-02-21T21:15:06.306Z,9.47
2019-02-21T21:20:15.515Z,9.44
2019-02-21T21:25:06.381Z,9.44
2019-02-21T21:30:06.352Z,9.38
2019-02-21T21:35:06.299Z,9.38
2019-02-21T21:40:06.327Z,9.36
2019-02-21T21:45:07.540Z,9.36
2019-02-21T21:50:08.288Z,9.33
2019-02-21T21:55:07.525Z,9.33
2019-02-21T22:00:06.296Z,9.31
2019-02-21T22:05:06.277Z,9.30
2019-02-21T22:10:06.061Z,9.28
2019-02-21T22:15:05.023Z,9.30
2019-02-21T22:20:05.042Z,9.28
2019-02-21T22:25:05.094Z,9.27
2019-02-21T22:30:05.007Z,9.26
2019-02-21T22:35:04.312Z,9.26
2019-02-21T22:40:04.058Z,9.26
2019-02-21T22:45:05.396Z,9.25
2019-02-21T22:50:03.035Z,9.23
2019-02-21T22:55:09.887Z,9.22
2019-02-21T23:00:02.104Z,9.22
2019-02-21T23:05:02.043Z,9.23
2019-02-21T23:10:02.064Z,9.23
2019-02-21T23:15:02.044Z,9.22
2019-02-21T23:20:01.029Z,9.21
2019-02-21T23:25:00.998Z,9.20
2019-02-21T23:30:02.031Z,9.20
2019-02-21T23:35:02.049Z,9.18
2019-02-21T23:40:02.033Z,9.18
2019-02-21T23:45:01.045Z,9.17
2019-02-21T23:50:00.314Z,9.18
2019-02-21T23:55:01.033Z,9.15
